Alum Ridge, Virginia
Current Conditions -  °F | °C
As of 11:35 AM on Tuesday 27 Jan 2015 (Local Time) from KBCB Reporting Station
Clear Clear  
Wind Chill: 22°   Ceiling: Unl
Heat Index: 29°   Visibility: 10mi
Dew Point:   Wind: 7mph
Humidity: 44%   Direction: 280°W
Pressure: 29.84"   Gusts: NA
Location:  36.9207°N, 80.3192°W
Report Text: KBCB 271635Z AUTO 28006KT 10SM CLR M02/M13 A2984 RMK AO2 T10181127
Loading
Personal Weather Stations






























Interactive Weather Map New forecast layout! Learn more

10-Day Weather Forecast

Advertisements
Track Severe Weather on mobile